createdAt,value
2019-04-20T00:00:29.418Z,102564.56
2019-04-20T00:03:00.991Z,102557.88
2019-04-20T00:05:30.910Z,102551.44
2019-04-20T00:08:07.841Z,102551.69
2019-04-20T00:10:44.739Z,102549.55
2019-04-20T00:13:16.346Z,102541.73
2019-04-20T00:15:36.753Z,102543.36
2019-04-20T00:18:08.540Z,102544.53
2019-04-20T00:20:40.794Z,102540.95
2019-04-20T00:23:26.994Z,102542.94
2019-04-20T00:26:19.438Z,102538.16
2019-04-20T00:29:00.195Z,102537.63
2019-04-20T00:31:29.776Z,102537.30
2019-04-20T00:33:57.496Z,102532.87
2019-04-20T00:36:18.043Z,102535.24
2019-04-20T00:38:51.959Z,102538.16
2019-04-20T00:41:21.258Z,102537.34
2019-04-20T00:43:51.180Z,102535.43
2019-04-20T00:46:30.447Z,102538.41
2019-04-20T00:48:59.463Z,102543.62
2019-04-20T00:51:41.910Z,102539.89
2019-04-20T00:53:58.735Z,102541.52
2019-04-20T00:56:27.380Z,102544.23
2019-04-20T00:59:13.098Z,102543.99
2019-04-20T01:01:50.244Z,102543.67
2019-04-20T01:04:20.207Z,102546.36
2019-04-20T01:06:55.083Z,102547.52
2019-04-20T01:09:14.108Z,102548.59
2019-04-20T01:11:47.888Z,102546.19
2019-04-20T01:14:17.173Z,102543.45
2019-04-20T01:16:54.961Z,102547.53
2019-04-20T01:19:19.172Z,102551.06
2019-04-20T01:21:57.877Z,102551.34
2019-04-20T01:24:29.641Z,102551.39
2019-04-20T01:26:55.914Z,102558.41
2019-04-20T01:29:33.282Z,102554.65
2019-04-20T01:32:13.804Z,102556.00
2019-04-20T01:34:41.640Z,102560.02
2019-04-20T01:37:14.496Z,102557.89
2019-04-20T01:39:37.085Z,102557.09
2019-04-20T01:42:02.384Z,102558.16
2019-04-20T01:44:38.506Z,102560.56
2019-04-20T01:47:06.578Z,102568.61
2019-04-20T01:49:37.378Z,102569.95
2019-04-20T01:52:16.419Z,102571.04
2019-04-20T01:55:02.580Z,102577.49
2019-04-20T01:57:45.841Z,102576.92
2019-04-20T02:00:10.631Z,102575.84
2019-04-20T02:02:53.874Z,102581.48
2019-04-20T02:05:24.752Z,102576.37
2019-04-20T02:07:53.910Z,102576.89
2019-04-20T02:10:33.343Z,102584.67
2019-04-20T02:12:59.410Z,102575.03
2019-04-20T02:15:32.964Z,102584.95
2019-04-20T02:18:10.338Z,102583.05
2019-04-20T02:20:48.588Z,102588.69
2019-04-20T02:23:15.901Z,102584.37
2019-04-20T02:25:31.363Z,102584.91
2019-04-20T02:28:17.553Z,102584.89
2019-04-20T02:31:15.577Z,102582.76
2019-04-20T02:33:55.655Z,102588.41
2019-04-20T02:36:27.869Z,102586.24
2019-04-20T02:44:15.973Z,102591.33
2019-04-20T02:46:42.781Z,102588.11
2019-04-20T02:49:26.126Z,102591.09
2019-04-20T02:51:46.834Z,102588.38
2019-04-20T02:56:48.098Z,102591.58
2019-04-20T03:01:36.960Z,102590.25
2019-04-20T03:03:54.844Z,102589.45
2019-04-20T03:06:35.039Z,102586.48
2019-04-20T03:09:17.509Z,102588.30
2019-04-20T03:11:52.766Z,102586.95
2019-04-20T03:14:14.913Z,102588.58
2019-04-20T03:16:44.693Z,102589.95
2019-04-20T03:19:17.107Z,102584.59
2019-04-20T03:21:52.652Z,102591.82
2019-04-20T03:26:56.899Z,102589.39
2019-04-20T03:29:34.891Z,102591.26
2019-04-20T03:35:00.575Z,102594.39
2019-04-20T03:37:12.928Z,102601.09
2019-04-20T03:39:39.001Z,102603.50
2019-04-20T03:41:54.882Z,102602.42
2019-04-20T03:44:26.382Z,102596.75
2019-04-20T03:46:59.779Z,102605.10
2019-04-20T03:49:48.207Z,102601.33
2019-04-20T03:52:32.955Z,102598.91
2019-04-20T03:54:54.353Z,102598.36
2019-04-20T03:57:45.901Z,102591.95
2019-04-20T04:00:34.290Z,102596.77
2019-04-20T04:03:19.989Z,102596.75
2019-04-20T04:05:42.028Z,102588.93
2019-04-20T04:08:07.614Z,102590.03
2019-04-20T04:10:44.299Z,102595.68
2019-04-20T04:13:18.791Z,102591.92
2019-04-20T04:15:55.709Z,102596.73
2019-04-20T04:18:29.734Z,102594.78
2019-04-20T04:21:00.101Z,102589.72
2019-04-20T04:23:58.964Z,102597.67
2019-04-20T04:26:18.709Z,102601.42
2019-04-20T04:28:44.887Z,102601.69
2019-04-20T04:31:17.657Z,102601.95
2019-04-20T04:33:55.965Z,102599.80
2019-04-20T04:36:17.820Z,102604.59
2019-04-20T04:38:58.045Z,102602.41
2019-04-20T04:41:26.582Z,102611.27
2019-04-20T04:43:55.211Z,102610.41
2019-04-20T04:46:10.220Z,102614.14
2019-04-20T04:48:43.907Z,102617.95
2019-04-20T04:51:20.003Z,102616.06
2019-04-20T04:53:52.982Z,102623.61
2019-04-20T04:56:18.377Z,102626.02
2019-04-20T04:58:46.785Z,102623.61
2019-04-20T05:01:22.354Z,102624.06
2019-04-20T05:04:14.660Z,102629.05
2019-04-20T05:06:33.016Z,102629.87
2019-04-20T05:08:56.583Z,102627.42
2019-04-20T05:11:23.805Z,102626.41
2019-04-20T05:14:01.611Z,102632.66
2019-04-20T05:16:46.022Z,102637.20
2019-04-20T05:19:18.782Z,102636.71
2019-04-20T05:21:57.425Z,102636.23
2019-04-20T05:24:36.900Z,102640.25
2019-04-20T05:27:29.015Z,102644.83
2019-04-20T05:29:39.504Z,102636.60
2019-04-20T05:32:14.793Z,102634.19
2019-04-20T05:35:06.945Z,102641.92
2019-04-20T05:37:45.765Z,102637.98
2019-04-20T05:40:05.898Z,102636.14
2019-04-20T05:42:41.198Z,102636.17
2019-04-20T05:45:07.554Z,102640.47
2019-04-20T05:47:39.977Z,102638.16
2019-04-20T05:50:04.950Z,102640.00
2019-04-20T05:52:50.896Z,102627.84
2019-04-20T05:55:14.693Z,102628.41
2019-04-20T05:57:50.768Z,102633.06
2019-04-20T06:00:21.495Z,102629.55
2019-04-20T06:02:49.859Z,102628.74
2019-04-20T06:05:25.263Z,102635.19
2019-04-20T06:07:55.066Z,102635.48
2019-04-20T06:10:27.483Z,102635.20
2019-04-20T06:12:55.538Z,102637.32
2019-04-20T06:15:36.723Z,102631.92
2019-04-20T06:18:02.765Z,102629.81
2019-04-20T06:20:41.233Z,102631.97
2019-04-20T06:23:33.256Z,102639.48
2019-04-20T06:26:17.181Z,102642.97
2019-04-20T06:28:27.978Z,102640.56
2019-04-20T06:30:59.474Z,102643.50
2019-04-20T06:36:47.159Z,102633.25
2019-04-20T06:39:17.527Z,102642.63
2019-04-20T06:42:00.159Z,102641.30
2019-04-20T06:44:26.712Z,102643.13
2019-04-20T06:46:53.731Z,102637.75
2019-04-20T06:49:22.444Z,102643.61
2019-04-20T06:51:52.801Z,102641.72
2019-04-20T06:54:12.972Z,102643.77
2019-04-20T06:56:54.057Z,102644.45
2019-04-20T06:59:33.434Z,102648.44
2019-04-20T07:02:03.907Z,102647.33
2019-04-20T07:04:48.625Z,102645.45
2019-04-20T07:07:18.501Z,102643.72
2019-04-20T07:12:03.070Z,102644.83
2019-04-20T07:14:27.526Z,102644.04
2019-04-20T07:17:24.885Z,102647.88
2019-04-20T07:19:40.191Z,102650.47
2019-04-20T07:22:31.399Z,102645.52
2019-04-20T07:24:57.385Z,102646.29
2019-04-20T07:27:19.328Z,102648.70
2019-04-20T07:30:00.555Z,102646.81
2019-04-20T07:32:17.431Z,102652.16
2019-04-20T07:34:56.840Z,102651.83
2019-04-20T07:40:05.887Z,102649.41
2019-04-20T07:42:34.623Z,102648.95
2019-04-20T07:45:07.654Z,102651.63
2019-04-20T07:47:40.590Z,102654.45
2019-04-20T07:50:05.104Z,102650.98
2019-04-20T07:52:31.895Z,102653.67
2019-04-20T07:57:37.449Z,102655.33
2019-04-20T08:00:13.419Z,102650.34
2019-04-20T08:03:12.192Z,102648.57
2019-04-20T08:05:36.989Z,102649.07
2019-04-20T08:08:20.956Z,102643.73
2019-04-20T08:10:39.494Z,102650.44
2019-04-20T08:13:30.477Z,102645.58
2019-04-20T08:15:58.788Z,102646.02
2019-04-20T08:18:27.799Z,102638.28
2019-04-20T08:20:57.638Z,102641.05
2019-04-20T08:23:32.008Z,102643.97
2019-04-20T08:25:49.436Z,102643.80
2019-04-20T08:28:24.157Z,102642.48
2019-04-20T08:31:06.332Z,102643.70
2019-04-20T08:33:55.470Z,102644.99
2019-04-20T08:36:17.067Z,102643.02
2019-04-20T08:41:19.381Z,102634.46
2019-04-20T08:44:06.426Z,102633.83
2019-04-20T08:48:57.039Z,102623.19
2019-04-20T08:51:25.952Z,102627.01
2019-04-20T08:53:56.418Z,102632.67
2019-04-20T08:56:21.982Z,102627.70
2019-04-20T08:58:41.637Z,102632.57
2019-04-20T09:01:20.205Z,102624.02
2019-04-20T09:03:54.414Z,102622.08
2019-04-20T09:06:32.311Z,102621.78
2019-04-20T09:09:02.900Z,102623.34
2019-04-20T09:11:44.757Z,102621.34
2019-04-20T09:13:53.567Z,102615.23
2019-04-20T09:16:26.896Z,102624.24
2019-04-20T09:18:59.867Z,102615.70
2019-04-20T09:21:37.943Z,102623.96
2019-04-20T09:24:22.758Z,102606.78
2019-04-20T09:26:47.545Z,102608.13
2019-04-20T09:29:12.689Z,102608.52
2019-04-20T09:31:44.367Z,102613.53
2019-04-20T09:34:20.564Z,102609.52
2019-04-20T09:36:51.406Z,102612.11
2019-04-20T09:39:21.116Z,102613.41
2019-04-20T09:42:01.545Z,102611.23
2019-04-20T09:44:39.835Z,102610.98
2019-04-20T09:47:05.028Z,102610.75
2019-04-20T09:49:46.084Z,102602.91
2019-04-20T09:52:23.677Z,102610.50
2019-04-20T09:54:55.202Z,102603.23
2019-04-20T09:57:29.661Z,102602.16
2019-04-20T09:59:57.680Z,102595.69
2019-04-20T10:02:19.898Z,102602.61
2019-04-20T10:04:44.570Z,102599.25
2019-04-20T10:07:19.609Z,102596.19
2019-04-20T10:09:47.401Z,102594.55
2019-04-20T10:12:19.653Z,102598.85
2019-04-20T10:14:50.877Z,102593.78
2019-04-20T10:17:20.890Z,102593.84
2019-04-20T10:19:51.407Z,102594.83
2019-04-20T10:22:22.556Z,102590.84
2019-04-20T10:24:53.821Z,102588.28
2019-04-20T10:27:24.371Z,102583.34
2019-04-20T10:29:55.498Z,102580.57
2019-04-20T10:32:34.153Z,102582.07
2019-04-20T10:34:57.175Z,102580.11
2019-04-20T10:37:29.368Z,102579.37
2019-04-20T10:40:00.527Z,102576.52
2019-04-20T10:42:30.556Z,102576.69
2019-04-20T10:45:01.107Z,102575.84
2019-04-20T10:47:32.762Z,102571.63
2019-04-20T10:50:03.184Z,102569.39
2019-04-20T10:52:33.970Z,102570.77
2019-04-20T10:55:04.632Z,102566.38
2019-04-20T10:57:35.392Z,102565.11
2019-04-20T11:00:08.310Z,102561.91
2019-04-20T11:02:39.282Z,102566.76
2019-04-20T11:05:10.817Z,102563.34
2019-04-20T11:07:41.026Z,102563.27
2019-04-20T11:10:19.835Z,102557.20
2019-04-20T11:12:42.764Z,102556.88
2019-04-20T11:15:12.747Z,102550.80
2019-04-20T11:17:43.552Z,102558.06
2019-04-20T11:20:13.523Z,102552.25
2019-04-20T11:22:44.318Z,102551.50
2019-04-20T11:25:14.970Z,102545.44
2019-04-20T11:27:45.930Z,102545.88
2019-04-20T11:30:16.272Z,102540.39
2019-04-20T11:32:46.277Z,102540.72
2019-04-20T11:35:23.890Z,102539.97
2019-04-20T11:37:49.157Z,102531.01
2019-04-20T11:40:19.520Z,102527.17
2019-04-20T11:42:50.002Z,102528.94
2019-04-20T11:45:20.529Z,102526.42
2019-04-20T11:47:51.574Z,102523.48
2019-04-20T11:50:22.018Z,102518.79
2019-04-20T11:52:52.990Z,102514.16
2019-04-20T11:55:24.284Z,102518.77
2019-04-20T11:57:54.233Z,102509.23
2019-04-20T12:00:53.876Z,102499.23
2019-04-20T12:03:26.017Z,102503.02
2019-04-20T12:05:53.798Z,102499.97
2019-04-20T12:08:22.854Z,102493.69
2019-04-20T12:10:56.704Z,102490.74
2019-04-20T12:13:24.827Z,102491.14
2019-04-20T12:15:56.019Z,102478.02
2019-04-20T12:18:27.484Z,102479.92
2019-04-20T12:20:58.789Z,102471.37
2019-04-20T13:22:28.774Z,102423.37
2019-04-20T13:24:58.974Z,102419.24
2019-04-20T13:27:29.182Z,102414.92
2019-04-20T13:29:59.128Z,102418.91
2019-04-20T13:32:29.766Z,102411.96
2019-04-20T13:35:00.287Z,102416.63
2019-04-20T13:37:31.650Z,102403.56
2019-04-20T13:40:02.998Z,102400.27
2019-04-20T13:42:33.504Z,102402.41
2019-04-20T13:45:08.821Z,102390.50
2019-04-20T13:47:39.064Z,102385.09
2019-04-20T13:50:12.405Z,102385.90
2019-04-20T13:52:41.107Z,102376.31
2019-04-20T13:55:12.798Z,102376.52
2019-04-20T13:57:44.300Z,102377.14
2019-04-20T14:00:20.465Z,102367.67
2019-04-20T14:03:08.995Z,102362.31
2019-04-20T14:05:40.498Z,102361.58
2019-04-20T14:08:11.650Z,102359.63
2019-04-20T14:10:43.220Z,102356.00
2019-04-20T14:13:16.785Z,102355.37
2019-04-20T14:15:45.094Z,102360.39
2019-04-20T14:18:15.269Z,102354.72
2019-04-20T14:20:45.194Z,102347.41
2019-04-20T14:23:15.040Z,102343.28
2019-04-20T14:25:45.261Z,102339.69
2019-04-20T14:28:15.477Z,102335.18
2019-04-20T14:30:45.943Z,102335.88
2019-04-20T14:33:16.895Z,102330.08
2019-04-20T14:35:47.215Z,102325.16
2019-04-20T14:38:17.935Z,102336.91
2019-04-20T14:40:48.359Z,102325.05
2019-04-20T14:43:19.385Z,102325.88
2019-04-20T14:45:50.519Z,102325.89
2019-04-20T14:48:20.741Z,102320.20
2019-04-20T14:50:51.893Z,102318.67
2019-04-20T14:53:23.133Z,102312.53
2019-04-20T14:55:53.697Z,102309.58
2019-04-20T14:58:42.184Z,102308.68
2019-04-20T15:01:32.501Z,102300.12
2019-04-20T15:04:09.507Z,102304.98
2019-04-20T15:06:37.902Z,102293.09
2019-04-20T15:09:08.927Z,102289.16
2019-04-20T15:11:41.683Z,102292.05
2019-04-20T15:14:11.043Z,102292.17
2019-04-20T15:16:42.555Z,102284.86
2019-04-20T15:19:13.602Z,102298.13
2019-04-20T15:21:53.820Z,102292.95
2019-04-20T15:24:23.824Z,102291.66
2019-04-20T15:26:58.727Z,102288.23
2019-04-20T15:29:28.664Z,102283.22
2019-04-20T15:31:59.911Z,102286.52
2019-04-20T15:34:30.895Z,102287.17
2019-04-20T15:37:02.347Z,102291.48
2019-04-20T15:39:32.940Z,102283.98
2019-04-20T15:42:03.333Z,102288.55
2019-04-20T15:44:33.493Z,102280.14
2019-04-20T15:47:03.718Z,102280.94
2019-04-20T15:49:33.803Z,102279.02
2019-04-20T15:52:03.957Z,102281.06
2019-04-20T15:54:34.077Z,102274.92
2019-04-20T15:57:12.310Z,102274.23
2019-04-20T15:59:35.534Z,102273.78
2019-04-20T16:02:13.553Z,102271.64
2019-04-20T16:05:00.718Z,102276.06
2019-04-20T16:07:37.798Z,102279.91
2019-04-20T16:10:03.336Z,102280.36
2019-04-20T16:12:33.305Z,102272.30
2019-04-20T16:15:03.951Z,102273.43
2019-04-20T16:17:39.177Z,102279.53
2019-04-20T16:20:12.605Z,102275.72
2019-04-20T16:22:38.520Z,102277.48
2019-04-20T16:25:17.274Z,102274.77
2019-04-20T16:27:47.677Z,102269.20
2019-04-20T16:30:19.867Z,102273.84
2019-04-20T16:32:50.275Z,102270.53
2019-04-20T16:35:20.390Z,102265.92
2019-04-20T16:37:50.724Z,102259.42
2019-04-20T16:40:21.002Z,102268.73
2019-04-20T16:42:52.056Z,102258.72
2019-04-20T16:45:23.194Z,102263.02
2019-04-20T16:47:54.511Z,102262.67
2019-04-20T16:50:24.750Z,102259.11
2019-04-20T16:52:55.069Z,102256.64
2019-04-20T16:55:25.204Z,102258.89
2019-04-20T16:57:55.501Z,102258.77
2019-04-20T17:00:27.407Z,102251.16
2019-04-20T17:02:58.462Z,102249.67
2019-04-20T17:05:29.233Z,102252.87
2019-04-20T17:08:00.852Z,102253.08
2019-04-20T17:10:30.839Z,102251.07
2019-04-20T17:13:01.892Z,102251.70
2019-04-20T17:15:31.872Z,102244.22
2019-04-20T17:18:01.695Z,102251.96
2019-04-20T17:20:32.732Z,102252.03
2019-04-20T17:23:05.614Z,102247.34
2019-04-20T17:25:34.473Z,102248.57
2019-04-20T17:28:22.676Z,102257.15
2019-04-20T17:31:01.057Z,102248.39
2019-04-20T17:33:46.517Z,102247.48
2019-04-20T17:36:14.443Z,102246.36
2019-04-20T17:38:43.361Z,102251.58
2019-04-20T17:41:23.688Z,102246.81
2019-04-20T17:44:00.315Z,102247.70
2019-04-20T17:46:24.827Z,102244.48
2019-04-20T17:49:00.594Z,102254.20
2019-04-20T17:51:36.171Z,102247.59
2019-04-20T17:53:52.712Z,102255.95
2019-04-20T17:56:17.893Z,102246.77
2019-04-20T17:58:48.044Z,102255.30
2019-04-20T18:01:48.910Z,102257.52
2019-04-20T18:04:51.906Z,102254.08
2019-04-20T18:07:04.358Z,102255.05
2019-04-20T18:09:47.486Z,102258.98
2019-04-20T18:11:59.663Z,102260.89
2019-04-20T18:14:43.127Z,102260.37
2019-04-20T18:17:17.753Z,102266.14
2019-04-20T18:19:49.240Z,102271.02
2019-04-20T18:22:19.728Z,102266.77
2019-04-20T18:25:12.201Z,102264.89
2019-04-20T18:27:45.516Z,102271.59
2019-04-20T18:30:10.753Z,102266.59
2019-04-20T18:32:29.745Z,102269.86
2019-04-20T18:35:04.746Z,102266.77
2019-04-20T18:37:34.369Z,102271.56
2019-04-20T18:40:14.327Z,102272.77
2019-04-20T18:42:45.285Z,102274.46
2019-04-20T18:45:29.651Z,102276.53
2019-04-20T18:48:06.560Z,102274.31
2019-04-20T18:50:25.180Z,102281.59
2019-04-20T18:52:51.644Z,102284.69
2019-04-20T18:55:31.246Z,102288.92
2019-04-20T18:57:55.060Z,102292.02
2019-04-20T19:00:31.912Z,102287.50
2019-04-20T19:03:06.480Z,102291.31
2019-04-20T19:05:29.586Z,102291.63
2019-04-20T19:08:04.397Z,102291.85
2019-04-20T19:10:36.371Z,102291.53
2019-04-20T19:13:07.976Z,102292.94
2019-04-20T19:16:03.677Z,102297.25
2019-04-20T19:18:54.853Z,102299.79
2019-04-20T19:21:11.023Z,102294.03
2019-04-20T19:23:51.607Z,102295.28
2019-04-20T19:26:18.203Z,102300.95
2019-04-20T19:28:50.015Z,102302.84
2019-04-20T19:31:36.737Z,102292.27
2019-04-20T19:34:09.747Z,102297.19
2019-04-20T19:36:28.794Z,102302.50
2019-04-20T19:39:06.080Z,102298.41
2019-04-20T19:41:32.004Z,102304.59
2019-04-20T19:44:07.023Z,102306.77
2019-04-20T19:47:03.206Z,102305.78
2019-04-20T19:49:07.960Z,102312.16
2019-04-20T19:51:48.097Z,102308.36
2019-04-20T19:54:24.292Z,102305.04
2019-04-20T19:56:48.747Z,102299.30
2019-04-20T19:59:11.009Z,102305.08
2019-04-20T20:01:35.626Z,102302.74
2019-04-20T20:04:09.268Z,102305.03
2019-04-20T20:06:45.346Z,102307.52
2019-04-20T20:09:12.731Z,102311.26
2019-04-20T20:11:44.401Z,102305.13
2019-04-20T20:14:16.989Z,102307.36
2019-04-20T20:17:04.256Z,102307.09
2019-04-20T20:19:32.355Z,102300.23
2019-04-20T20:22:02.715Z,102304.53
2019-04-20T20:24:19.661Z,102293.53
2019-04-20T20:26:56.351Z,102298.22
2019-04-20T20:29:33.458Z,102295.02
2019-04-20T20:32:07.279Z,102300.23
2019-04-20T20:34:32.599Z,102305.95
2019-04-20T20:37:01.794Z,102304.60
2019-04-20T20:39:32.607Z,102294.30
2019-04-20T20:42:15.313Z,102303.96
2019-04-20T20:44:41.191Z,102300.48
2019-04-20T20:47:33.893Z,102307.05
2019-04-20T20:50:03.238Z,102305.55
2019-04-20T20:52:23.206Z,102309.13
2019-04-20T20:54:49.484Z,102303.22
2019-04-20T20:57:15.383Z,102310.75
2019-04-20T20:59:51.354Z,102312.41
2019-04-20T21:02:19.736Z,102311.77
2019-04-20T21:04:45.598Z,102308.30
2019-04-20T21:07:16.385Z,102307.91
2019-04-20T21:09:46.419Z,102310.14
2019-04-20T21:12:18.122Z,102319.09
2019-04-20T21:14:49.026Z,102312.78
2019-04-20T21:17:23.608Z,102311.20
2019-04-20T21:20:06.296Z,102314.98
2019-04-20T21:22:41.204Z,102312.11
2019-04-20T21:24:56.811Z,102308.67
2019-04-20T21:27:27.687Z,102312.25
2019-04-20T21:29:59.981Z,102313.77
2019-04-20T21:32:33.015Z,102310.11
2019-04-20T21:35:05.275Z,102310.89
2019-04-20T21:37:32.714Z,102307.45
2019-04-20T21:40:14.043Z,102314.30
2019-04-20T21:42:44.555Z,102317.30
2019-04-20T21:45:16.873Z,102307.97
2019-04-20T21:47:42.948Z,102309.93
2019-04-20T21:50:33.542Z,102308.53
2019-04-20T21:52:48.530Z,102307.08
2019-04-20T21:55:16.244Z,102300.16
2019-04-20T21:57:51.529Z,102303.25
2019-04-20T22:00:42.255Z,102308.28
2019-04-20T22:03:11.887Z,102308.41
2019-04-20T22:05:42.333Z,102305.48
2019-04-20T22:08:15.946Z,102311.70
2019-04-20T22:10:44.945Z,102311.23
2019-04-20T22:13:19.474Z,102317.11
2019-04-20T22:15:55.461Z,102312.02
2019-04-20T22:18:21.260Z,102315.96
2019-04-20T22:21:02.340Z,102309.33
2019-04-20T22:23:36.602Z,102319.59
2019-04-20T22:26:04.142Z,102312.70
2019-04-20T22:28:24.448Z,102308.56
2019-04-20T22:30:55.763Z,102306.79
2019-04-20T22:33:31.914Z,102302.66
2019-04-20T22:36:03.857Z,102299.82
2019-04-20T22:38:55.892Z,102296.30
2019-04-20T22:41:24.107Z,102296.63
2019-04-20T22:43:52.555Z,102289.97
2019-04-20T22:46:24.749Z,102295.78
2019-04-20T22:49:15.524Z,102293.03
2019-04-20T22:51:39.953Z,102287.94
2019-04-20T22:54:17.331Z,102293.45
2019-04-20T22:56:43.484Z,102287.84
2019-04-20T22:59:08.634Z,102287.34
2019-04-20T23:01:40.807Z,102289.05
2019-04-20T23:04:04.357Z,102277.77
2019-04-20T23:06:38.628Z,102284.00
2019-04-20T23:09:11.724Z,102278.38
2019-04-20T23:11:42.279Z,102282.42
2019-04-20T23:14:12.169Z,102274.93
2019-04-20T23:16:47.372Z,102268.34
2019-04-20T23:19:14.220Z,102265.66
2019-04-20T23:21:48.576Z,102261.45
2019-04-20T23:24:17.101Z,102259.34
2019-04-20T23:26:47.631Z,102261.27
2019-04-20T23:29:22.683Z,102250.59
2019-04-20T23:31:55.675Z,102252.22
2019-04-20T23:34:25.540Z,102245.55
2019-04-20T23:36:53.002Z,102247.19
2019-04-20T23:39:29.088Z,102238.31
2019-04-20T23:41:59.787Z,102238.14
2019-04-20T23:44:31.561Z,102236.56
2019-04-20T23:47:11.147Z,102226.44
2019-04-20T23:49:54.165Z,102223.67
2019-04-20T23:52:32.434Z,102235.14
2019-04-20T23:54:49.020Z,102223.57
2019-04-20T23:57:13.564Z,102215.02
2019-04-20T23:59:46.243Z,102217.44
